Latest Weather Observations for Giles*

IDD60801

Issued at 10:21 am CST Monday 16 September 2019 (issued every 10 minutes, with the page automatically refreshed every 10 minutes)

About weather observations | Map of weather stations | Latest weather observations for NT | Other Formats
Station Details ID: 013017 Name: GILES METEOROLOGICAL OFFICE Lat: -25.03 Lon: 128.30 Height: 598.0 m
Data from the previous 72 hours. | See also: Recent months at Giles*

* Giles observations are collected in the South Australia time zone, which includes daylight saving in the summer period. Therefore, Rain since 9am value is with respect to South Australia local time.

Date/Time
CST
Temp
°C
App
Temp
°C
Dew
Point
°C
Rel
Hum
%
Delta-T
°C
Wind Press
QNH
hPa
Press
MSL
hPa
Rain since
9am
mm
Dir  Spd
km/h
Gust
km/h
Spd
kts
Gust
kts
16/10:00am 27.5 21.5 -18.9 4 16.0 SSW 13 15 7 8 1021.7 1019.3 0.0
16/09:30am 26.2 20.4 -15.2 5 15.0 SSW 13 15 7 8 1021.8 1019.4 0.0
16/09:00am 24.9 19.3 -17.2 5 14.5 SSW 11 15 6 8 1021.6 1019.2 0.0
16/08:30am 22.4 16.9 -15.9 6 13.1 SSW 11 15 6 8 1021.4 1019.0 0.0
16/08:00am 18.9 12.7 -15.1 9 11.3 SSW 15 22 8 12 1021.0 1018.6 0.0
16/07:49am 17.0 12.3 -15.1 10 10.4 WSW 7 15 4 8 1020.5 1018.1 0.0
16/07:30am 22.3 18.6 -13.5 8 12.8 WSW 2 7 1 4 1020.1 1017.7 0.0
16/07:20am 19.0 16.3 -6.0 18 10.0 CALM 0 0 0 0 1020.0 1017.6 0.0
16/07:00am 13.8 9.3 -15.5 12 9.0 WSW 6 9 3 5 1019.9 1017.5 0.0
16/06:30am 16.0 11.7 -10.9 15 9.4 WSW 6 7 3 4 1019.6 1017.2 0.0
16/06:00am 20.1 15.6 -11.8 10 11.5 WSW 7 9 4 5 1019.5 1017.1 0.0
16/05:30am 18.3 14.0 -11.0 12 10.5 WSW 6 7 3 4 1019.4 1017.0 0.0
16/05:00am 18.7 14.3 -12.5 11 10.9 WSW 6 7 3 4 1019.2 1016.7 0.0
16/04:30am 13.9 7.9 -17.9 9 9.3 NNW 13 19 7 10 1018.9 1016.5 0.0
16/04:28am 15.7 9.8 -16.9 9 10.0 NNW 13 19 7 10 1018.8 1016.4 0.0
16/04:00am 22.9 17.5 -14.2 7 13.2 N 11 13 6 7 1018.8 1016.4 0.0
16/03:30am 23.0 17.7 -12.9 8 13.1 N 11 11 6 6 1018.9 1016.5 0.0
16/03:00am 22.0 16.6 -13.9 8 12.7 N 11 11 6 6 1019.3 1016.9 0.0
16/02:30am 22.7 16.9 -14.3 7 13.1 N 13 13 7 7 1019.5 1017.1 0.0
16/02:00am 23.1 17.7 -13.4 8 13.2 N 11 11 6 6 1019.6 1017.2 0.0
16/01:30am 22.9 17.9 -13.4 8 13.1 N 9 11 5 6 1019.9 1017.5 0.0
16/01:00am 23.2 17.8 -14.8 7 13.4 N 11 11 6 6 1020.1 1017.7 0.0
16/12:30am 23.1 17.7 -13.4 8 13.2 N 11 13 6 7 1020.3 1017.9 0.0
16/12:00am 23.6 16.9 -18.0 5 13.9 N 17 17 9 9 1020.6 1018.2 0.0
 
Date/Time
CST
Temp
°C
App
Temp
°C
Dew
Point
°C
Rel
Hum
%
Delta-T
°C
Wind Press
QNH
hPa
Press
MSL
hPa
Rain since
9am
mm
Dir  Spd
km/h
Gust
km/h
Spd
kts
Gust
kts
15/11:30pm 21.5 15.6 -15.4 7 12.6 N 13 17 7 9 1020.6 1018.2 0.0
15/11:00pm 22.7 17.8 -12.6 8 12.9 N 9 11 5 6 1020.7 1018.4 0.0
15/10:30pm 24.0 18.6 -14.7 6 13.8 N 11 13 6 7 1020.9 1018.5 0.0
15/10:00pm 24.5 19.0 -15.1 6 14.1 N 11 11 6 6 1020.9 1018.5 0.0
15/09:30pm 24.5 19.6 -12.3 8 13.8 N 9 11 5 6 1020.6 1018.2 0.0
15/09:00pm 24.9 19.1 -14.0 6 14.2 N 13 15 7 8 1020.5 1018.1 0.0
15/08:30pm 25.5 20.3 -10.5 8 14.1 N 11 13 6 7 1020.5 1018.1 0.0
15/08:00pm 26.2 21.4 -9.9 8 14.4 N 9 13 5 7 1020.2 1017.8 0.0
15/07:30pm 27.7 22.5 -11.3 7 15.4 N 11 13 6 7 1019.9 1017.5 0.0
15/07:00pm 29.1 24.8 -8.5 8 15.8 N 7 9 4 5 1019.6 1017.2 0.0
15/06:30pm 30.8 26.2 -13.8 5 17.4 N 7 9 4 5 1019.5 1017.1 0.0
15/06:00pm 31.8 26.7 -15.3 4 18.1 N 9 15 5 8 1019.5 1017.1 0.0
15/05:30pm 32.4 25.5 -21.9 2 18.9 N 17 24 9 13 1019.3 1016.9 0.0
15/05:00pm 32.4 27.0 -13.7 4 18.3 NNW 11 20 6 11 1019.3 1016.9 0.0
15/04:30pm 33.2 27.4 -25.0 2 19.5 NNE 11 19 6 10 1019.2 1016.7 0.0
15/04:00pm 32.9 27.7 -11.0 5 18.3 NNE 11 19 6 10 1019.3 1016.9 0.0
15/03:30pm 32.4 25.6 -20.2 2 18.8 NNE 17 28 9 15 1019.4 1017.0 0.0
15/03:00pm 33.1 26.0 -18.7 3 19.1 N 19 30 10 16 1019.7 1017.3 0.0
15/02:30pm 32.4 25.1 -18.7 3 18.7 NE 20 32 11 17 1020.1 1017.7 0.0
15/02:00pm 32.3 25.9 -19.6 3 18.7 NE 15 30 8 16 1020.5 1018.1 0.0
15/01:30pm 32.2 25.9 -17.6 3 18.5 NE 15 24 8 13 1021.0 1018.6 0.0
15/01:00pm 32.7 26.1 -27.8 1 19.4 N 15 35 8 19 1021.4 1019.0 0.0
15/12:30pm 31.1 24.7 -17.9 3 17.9 N 15 24 8 13 1021.9 1019.5 0.0
15/12:00pm 31.5 24.7 -19.1 3 18.2 NNW 17 24 9 13 1022.4 1020.1 0.0
15/11:30am 30.7 23.7 -25.7 2 18.1 N 17 24 9 13 1022.8 1020.4 0.0
15/11:00am 29.7 22.4 -22.5 2 17.5 N 19 26 10 14 1023.1 1020.7 0.0
15/10:30am 29.5 22.0 -24.7 2 17.4 NNE 20 26 11 14 1023.3 1020.9 0.0
15/10:00am 29.1 22.1 -25.1 2 17.3 NE 17 24 9 13 1023.4 1021.0 0.0
15/09:30am 28.6 22.1 -22.5 3 16.8 NE 15 24 8 13 1023.6 1021.2 0.0
15/09:00am 27.0 21.0 -18.6 4 15.7 NE 13 15 7 8 1023.5 1021.1 0.0
15/08:30am 24.8 19.7 -15.7 6 14.3 NE 9 11 5 6 1023.3 1020.9 0.0
15/08:00am 21.2 16.2 -14.1 8 12.3 NE 9 11 5 6 1023.2 1020.8 0.0
15/07:30am 19.9 15.6 -12.0 10 11.4 NE 6 7 3 4 1022.8 1020.4 0.0
15/07:00am 19.6 15.0 -13.1 10 11.4 NE 7 9 4 5 1022.5 1020.2 0.0
15/06:30am 18.7 14.3 -9.8 13 10.5 NE 7 9 4 5 1022.2 1019.9 0.0
15/06:00am 20.3 17.8 -4.3 18 10.3 CALM 0 4 0 2 1022.0 1019.6 0.0
15/05:30am 19.6 15.5 -8.3 14 10.7 NE 6 7 3 4 1021.8 1019.4 0.0
15/05:00am 16.0 10.5 -15.7 10 10.0 NE 11 13 6 7 1021.5 1019.1 0.0
15/04:30am 15.6 10.1 -16.5 9 9.9 NE 11 15 6 8 1021.3 1018.9 0.0
15/04:00am 16.9 11.0 -15.6 9 10.4 NE 13 15 7 8 1021.2 1018.8 0.0
15/03:30am 16.5 11.4 -14.5 11 10.1 NE 9 13 5 7 1021.3 1018.9 0.0
15/03:00am 18.6 14.9 -13.8 10 11.0 NE 2 7 1 4 1021.5 1019.1 0.0
15/02:30am 20.7 15.3 -13.6 9 12.0 NE 11 15 6 8 1021.8 1019.4 0.0
15/02:00am 18.8 13.3 -15.6 8 11.3 NE 11 13 6 7 1022.1 1019.7 0.0
15/01:30am 20.4 14.2 -14.0 9 11.9 E 15 17 8 9 1022.0 1019.6 0.0
15/01:00am 20.5 14.3 -15.4 8 12.1 E 15 17 8 9 1022.2 1019.9 0.0
15/12:30am 21.8 15.6 -15.0 7 12.7 E 15 17 8 9 1022.3 1020.0 0.0
15/12:00am 22.1 15.9 -14.5 7 12.8 E 15 17 8 9 1022.4 1020.1 0.0
 
Date/Time
CST
Temp
°C
App
Temp
°C
Dew
Point
°C
Rel
Hum
%
Delta-T
°C
Wind Press
QNH
hPa
Press
MSL
hPa
Rain since
9am
mm
Dir  Spd
km/h
Gust
km/h
Spd
kts
Gust
kts
14/11:30pm 22.8 16.6 -14.0 7 13.1 E 15 15 8 8 1022.7 1020.3 0.0
14/11:00pm 23.6 17.4 -14.9 7 13.6 E 15 15 8 8 1022.9 1020.5 0.0
14/10:30pm 24.4 18.2 -14.8 6 14.0 E 15 17 8 9 1023.0 1020.6 0.0
14/10:00pm 24.0 17.8 -14.8 6 13.8 E 15 17 8 9 1023.1 1020.7 0.0
14/09:30pm 24.7 18.9 -14.2 6 14.1 E 13 15 7 8 1023.2 1020.8 0.0
14/09:00pm 24.3 18.5 -14.3 7 13.9 E 13 15 7 8 1023.2 1020.8 0.0
14/08:30pm 25.5 19.7 -14.0 6 14.5 E 13 15 7 8 1023.0 1020.6 0.0
14/08:00pm 26.4 20.6 -14.2 6 15.0 E 13 17 7 9 1022.8 1020.4 0.0
14/07:30pm 27.0 21.4 -11.3 7 15.0 E 13 17 7 9 1022.4 1020.1 0.0
14/07:00pm 28.2 22.8 -14.5 5 16.1 E 11 15 6 8 1022.2 1019.9 0.0
14/06:30pm 30.2 23.5 -18.0 3 17.4 E 17 28 9 15 1022.0 1019.6 0.0
14/06:00pm 31.1 24.3 -21.0 2 18.1 ENE 17 24 9 13 1021.8 1019.4 0.0
14/05:30pm 31.4 23.8 -17.0 3 18.0 ENE 22 33 12 18 1021.8 1019.4 0.0
14/05:00pm 31.8 24.4 -19.5 3 18.4 E 20 37 11 20 1021.7 1019.3 0.0
14/04:30pm 32.4 24.7 -17.5 3 18.6 NE 22 32 12 17 1021.6 1019.2 0.0
14/04:00pm 32.6 25.3 -17.3 3 18.7 E 20 37 11 20 1021.8 1019.4 0.0
14/03:30pm 32.5 24.4 -18.1 3 18.7 E 24 35 13 19 1022.1 1019.7 0.0
14/03:00pm 32.6 25.5 -13.9 4 18.4 E 20 35 11 19 1022.5 1020.2 0.0
14/02:30pm 32.0 24.2 -12.3 5 17.9 NE 24 35 13 19 1023.1 1020.7 0.0
14/02:00pm 32.0 24.9 -13.3 5 18.1 ENE 20 35 11 19 1023.5 1021.1 0.0
14/01:30pm 30.9 24.6 -10.1 6 17.0 NE 17 30 9 16 1024.1 1021.8 0.0
14/01:00pm 30.9 24.1 -9.3 7 17.0 NE 20 43 11 23 1024.8 1022.4 0.0
14/12:30pm 30.7 23.0 -11.9 5 17.1 ENE 24 37 13 20 1025.1 1022.7 0.0
14/12:00pm 29.8 21.6 -12.9 5 16.7 N 26 37 14 20 1025.4 1023.1 0.0
14/11:30am 31.1 23.8 -10.9 6 17.2 NNE 22 37 12 20 1025.7 1023.4 0.0
14/11:00am 29.9 22.6 -10.7 6 16.6 NNE 22 33 12 18 1026.0 1023.7 0.0
14/10:30am 29.2 20.7 -11.5 6 16.2 NNE 28 41 15 22 1026.3 1023.9 0.0
14/10:00am 28.9 21.4 -8.9 8 15.8 NE 24 37 13 20 1026.5 1024.1 0.0
14/09:30am 27.8 19.9 -9.0 8 15.1 NNE 26 37 14 20 1026.6 1024.2 0.0
14/09:00am 27.5 21.3 -9.5 8 15.0 NE 17 24 9 13 1026.7 1024.4 0.0
14/08:30am 25.8 20.0 -8.9 9 14.0 ENE 15 22 8 12 1026.6 1024.2 0.0
14/08:00am 24.6 20.7 -6.7 12 13.1 ENE 6 7 3 4 1026.3 1023.9 0.0
14/07:30am 22.4 18.3 -6.5 14 11.8 ENE 7 11 4 6 1025.8 1023.5 0.0
14/07:00am 21.7 17.4 -5.2 16 11.2 ENE 9 13 5 7 1025.5 1023.2 0.0
14/06:30am 21.9 17.3 -7.4 13 11.7 ENE 9 15 5 8 1025.2 1022.9 0.0
14/06:00am 21.1 16.6 -6.9 14 11.2 ENE 9 11 5 6 1024.9 1022.5 0.0
14/05:30am 22.0 17.5 -6.5 14 11.6 ENE 9 11 5 6 1024.6 1022.2 0.0
14/05:00am 21.4 18.0 -5.5 16 11.1 ENE 4 7 2 4 1024.3 1022.0 0.0
14/04:30am 22.8 18.2 -7.5 12 12.2 ENE 9 13 5 7 1024.0 1021.7 0.0
14/04:00am 21.4 16.8 -8.3 13 11.7 ENE 9 13 5 7 1024.2 1021.9 0.0
14/03:30am 23.7 18.6 -9.6 10 13.0 ENE 11 19 6 10 1024.2 1021.9 0.0
14/03:00am 23.1 19.0 -8.4 11 12.5 ENE 6 15 3 8 1024.5 1022.1 0.0
14/02:30am 20.8 15.7 -9.6 12 11.5 ENE 11 15 6 8 1024.6 1022.2 0.0
14/02:00am 24.0 18.3 -12.2 8 13.6 ENE 13 20 7 11 1024.7 1022.3 0.0
14/01:30am 23.3 17.7 -11.1 9 13.0 ENE 13 17 7 9 1024.7 1022.3 0.0
14/01:00am 23.2 17.7 -10.1 10 12.9 ENE 13 15 7 8 1024.9 1022.5 0.0
14/12:30am 22.5 16.5 -11.3 9 12.6 ENE 15 19 8 10 1025.0 1022.6 0.0
14/12:00am 24.3 17.9 -11.0 9 13.5 ENE 17 20 9 11 1025.1 1022.7 0.0
 
Date/Time
CST
Temp
°C
App
Temp
°C
Dew
Point
°C
Rel
Hum
%
Delta-T
°C
Wind Press
QNH
hPa
Press
MSL
hPa
Rain since
9am
mm
Dir  Spd
km/h
Gust
km/h
Spd
kts
Gust
kts
13/11:30pm 21.7 15.3 -11.3 10 12.2 ENE 17 20 9 11 1025.3 1023.0 0.0
13/11:00pm 23.9 17.6 -10.3 9 13.3 ENE 17 19 9 10 1025.2 1022.9 0.0
13/10:30pm 23.4 17.8 -11.5 9 13.1 ENE 13 17 7 9 1025.2 1022.9 0.0
13/10:00pm 25.1 19.2 -10.1 9 13.9 ENE 15 17 8 9 1025.2 1022.9 0.0
13/09:30pm 25.3 19.4 -10.0 9 13.9 ENE 15 17 8 9 1025.3 1023.0 0.0
13/09:00pm 24.9 19.4 -10.1 9 13.7 ENE 13 17 7 9 1025.3 1023.0 0.0
13/08:30pm 25.1 19.6 -10.1 9 13.8 ENE 13 17 7 9 1025.0 1022.6 0.0
13/08:00pm 26.2 20.7 -10.1 8 14.5 ENE 13 17 7 9 1024.7 1022.3 0.0
13/07:30pm 27.6 22.2 -8.9 8 15.0 ENE 13 15 7 8 1024.2 1021.9 0.0
13/07:00pm 29.2 22.7 -13.1 5 16.5 ENE 17 26 9 14 1023.9 1021.6 0.0
13/06:30pm 30.3 22.4 -13.9 5 17.1 E 24 32 13 17 1023.4 1021.0 0.0
13/06:00pm 31.0 23.6 -12.1 5 17.3 E 22 35 12 19 1023.3 1020.9 0.0
13/05:30pm 31.5 24.6 -10.5 6 17.4 ENE 20 28 11 15 1023.1 1020.7 0.0
13/05:00pm 32.1 24.2 -14.8 4 18.3 E 24 39 13 21 1023.0 1020.6 0.0
13/04:30pm 32.3 24.8 -14.7 4 18.3 ENE 22 39 12 21 1023.1 1020.7 0.0
13/04:00pm 32.4 24.8 -16.3 3 18.6 ENE 22 43 12 23 1023.2 1020.8 0.0
13/03:32pm 32.7 23.9 -18.1 3 18.9 ENE 28 46 15 25 1023.4 1021.0 0.0
13/03:30pm 32.6 24.3 -15.0 4 18.5 ENE 26 43 14 23 1023.3 1020.9 0.0
13/03:03pm 32.2 23.4 -16.6 3 18.5 ENE 28 48 15 26 1023.6 1021.2 0.0
13/03:00pm 32.4 24.1 -15.2 4 18.4 E 26 44 14 24 1023.6 1021.2 0.0
13/02:38pm 32.1 23.4 -16.0 4 18.4 NE 28 46 15 25 1023.8 1021.5 0.0
13/02:30pm 31.6 22.9 -14.7 4 17.9 NE 28 43 15 23 1023.8 1021.5 0.0
13/02:00pm 32.2 23.0 -18.0 3 18.6 E 30 46 16 25 1024.3 1022.0 0.0
13/01:48pm 31.9 22.7 -19.0 3 18.5 ENE 30 48 16 26 1024.6 1022.2 0.0
13/01:30pm 31.8 22.8 -23.6 2 18.6 E 28 41 15 22 1025.0 1022.6 0.0
13/01:00pm 30.9 21.9 -21.7 2 18.1 ENE 28 35 15 19 1025.4 1023.1 0.0
13/12:30pm 30.8 23.2 -27.6 1 18.2 ENE 20 32 11 17 1026.0 1023.7 0.0
13/12:00pm 29.4 22.1 -24.2 2 17.3 NE 19 30 10 16 1026.3 1023.9 0.0
13/11:30am 28.7 21.1 -26.1 2 17.0 NE 20 32 11 17 1026.6 1024.2 0.0
13/11:00am 28.6 21.0 -27.6 2 17.1 NE 20 30 11 16 1026.8 1024.5 0.0
13/10:30am 27.8 20.3 -25.7 2 16.5 NE 20 32 11 17 1027.0 1024.7 0.0

Other formats

Comma delimited format used in spreadsheet applications
http://www.bom.gov.au/fwo/IDD60801/IDD60801.94461.axf

JavaScript Object Notation format (JSON) in row-major order
http://www.bom.gov.au/fwo/IDD60801/IDD60801.94461.json

Data quality

Most of these data are generated automatically and are frequently updated. Quality checks on data are not normally performed. It is possible for incorrect values to appear. Refer to information at About Latest Weather Observations and please check the disclaimer before using these data.